createdAt,value
2018-05-06T00:00:54.975Z,0
2018-05-06T00:01:56.612Z,0
2018-05-06T00:02:58.261Z,0
2018-05-06T00:03:59.910Z,0
2018-05-06T00:05:01.576Z,0
2018-05-06T00:06:03.236Z,0
2018-05-06T00:07:04.889Z,0
2018-05-06T00:08:06.548Z,0
2018-05-06T00:09:08.197Z,0
2018-05-06T00:10:09.869Z,0
2018-05-06T00:11:11.520Z,0
2018-05-06T00:12:13.163Z,0
2018-05-06T00:13:14.826Z,0
2018-05-06T00:14:16.478Z,0
2018-05-06T00:15:18.143Z,0
2018-05-06T00:16:19.778Z,0
2018-05-06T00:17:21.433Z,0
2018-05-06T00:18:23.085Z,0
2018-05-06T00:19:24.746Z,0
2018-05-06T00:20:26.400Z,0
2018-05-06T00:21:28.060Z,0
2018-05-06T00:22:29.709Z,0
2018-05-06T00:23:31.353Z,0
2018-05-06T00:24:33.003Z,0
2018-05-06T00:25:34.678Z,0
2018-05-06T00:26:36.337Z,0
2018-05-06T00:27:37.996Z,0
2018-05-06T00:28:39.642Z,0
2018-05-06T00:29:41.291Z,0
2018-05-06T00:30:42.962Z,0
2018-05-06T00:31:44.598Z,0
2018-05-06T00:32:46.238Z,0
2018-05-06T00:33:47.910Z,0
2018-05-06T00:34:49.630Z,0
2018-05-06T00:35:51.293Z,0
2018-05-06T00:36:52.957Z,0
2018-05-06T00:37:54.623Z,0
2018-05-06T00:38:56.273Z,0
2018-05-06T00:39:57.915Z,0
2018-05-06T00:40:59.573Z,0
2018-05-06T00:42:01.221Z,0
2018-05-06T00:43:02.872Z,0
2018-05-06T00:44:04.521Z,0
2018-05-06T00:45:06.170Z,0
2018-05-06T00:46:07.825Z,0
2018-05-06T00:47:09.479Z,0
2018-05-06T00:48:11.116Z,0
2018-05-06T00:49:12.765Z,0
2018-05-06T00:50:14.429Z,0
2018-05-06T00:51:16.074Z,0
2018-05-06T00:52:17.716Z,0
2018-05-06T00:53:19.366Z,0
2018-05-06T00:54:21.012Z,0
2018-05-06T00:55:22.665Z,0
2018-05-06T00:56:24.314Z,0
2018-05-06T00:57:25.985Z,0
2018-05-06T00:58:27.628Z,0
2018-05-06T00:59:29.274Z,0
2018-05-06T01:00:30.923Z,0
2018-05-06T01:01:32.571Z,0
2018-05-06T01:02:34.226Z,0
2018-05-06T01:03:35.876Z,0
2018-05-06T01:04:37.528Z,0
2018-05-06T01:05:39.174Z,0
2018-05-06T01:06:40.825Z,0
2018-05-06T01:07:42.470Z,0
2018-05-06T01:08:44.112Z,0
2018-05-06T01:09:45.762Z,0
2018-05-06T01:10:47.438Z,0
2018-05-06T01:11:49.096Z,0
2018-05-06T01:12:50.735Z,0
2018-05-06T01:13:52.389Z,0
2018-05-06T01:14:54.026Z,0
2018-05-06T01:15:55.675Z,0
2018-05-06T01:16:57.321Z,0
2018-05-06T01:17:58.969Z,0
2018-05-06T01:19:00.626Z,0
2018-05-06T01:20:02.286Z,0
2018-05-06T01:21:03.922Z,0
2018-05-06T01:22:05.578Z,0
2018-05-06T01:23:07.224Z,0
2018-05-06T01:24:08.878Z,0
2018-05-06T01:25:10.532Z,0
2018-05-06T01:26:12.181Z,0
2018-05-06T01:27:13.827Z,0
2018-05-06T01:28:15.479Z,0
2018-05-06T01:29:17.126Z,0
2018-05-06T01:30:18.772Z,0
2018-05-06T01:31:20.426Z,0
2018-05-06T01:32:22.073Z,0
2018-05-06T01:33:23.715Z,0
2018-05-06T01:34:25.380Z,0
2018-05-06T01:35:27.018Z,0
2018-05-06T01:36:28.667Z,0
2018-05-06T01:37:30.316Z,0
2018-05-06T01:38:31.954Z,0
2018-05-06T01:39:33.603Z,0
2018-05-06T01:40:35.245Z,0
2018-05-06T01:41:36.896Z,0
2018-05-06T01:42:38.546Z,0
2018-05-06T01:43:40.196Z,0
2018-05-06T01:44:41.848Z,0
2018-05-06T01:45:43.501Z,0
2018-05-06T01:46:45.148Z,0
2018-05-06T01:47:46.825Z,0
2018-05-06T01:48:48.450Z,0
2018-05-06T01:49:50.096Z,0
2018-05-06T01:50:51.743Z,0
2018-05-06T01:51:53.395Z,0
2018-05-06T01:52:55.041Z,0
2018-05-06T01:53:56.692Z,0
2018-05-06T01:54:58.337Z,0
2018-05-06T01:55:59.991Z,0
2018-05-06T02:02:11.428Z,0
2018-05-06T02:03:13.069Z,0
2018-05-06T02:05:05.012Z,0
2018-05-06T02:06:06.650Z,0
2018-05-06T02:07:58.475Z,0
2018-05-06T02:09:00.115Z,0
2018-05-06T02:10:51.945Z,0
2018-05-06T02:11:53.590Z,0
2018-05-06T02:13:45.479Z,0
2018-05-06T02:14:47.154Z,0
2018-05-06T02:16:38.981Z,0
2018-05-06T02:17:40.624Z,0
2018-05-06T02:19:32.465Z,0
2018-05-06T02:20:34.113Z,0
2018-05-06T02:22:26.015Z,0
2018-05-06T02:23:27.667Z,0
2018-05-06T02:25:19.489Z,0
2018-05-06T02:26:21.136Z,0
2018-05-06T02:27:22.780Z,0
2018-05-06T02:28:24.426Z,0
2018-05-06T02:29:26.071Z,0
2018-05-06T02:30:27.715Z,0
2018-05-06T02:31:29.366Z,0
2018-05-06T02:32:31.016Z,0
2018-05-06T02:33:32.654Z,0
2018-05-06T02:34:34.315Z,0
2018-05-06T02:35:35.953Z,0
2018-05-06T02:36:37.607Z,0
2018-05-06T02:37:39.256Z,0
2018-05-06T02:38:40.904Z,0
2018-05-06T02:39:42.547Z,0
2018-05-06T02:40:44.201Z,0
2018-05-06T02:41:45.872Z,0
2018-05-06T02:42:47.538Z,0
2018-05-06T02:43:49.182Z,0
2018-05-06T02:44:50.832Z,0
2018-05-06T02:45:52.476Z,0
2018-05-06T02:46:54.113Z,0
2018-05-06T02:47:55.763Z,0
2018-05-06T02:48:57.418Z,0
2018-05-06T02:49:59.068Z,0
2018-05-06T02:51:00.709Z,0
2018-05-06T02:52:02.355Z,0
2018-05-06T02:53:04.005Z,0
2018-05-06T02:54:05.645Z,0
2018-05-06T02:55:07.293Z,0
2018-05-06T02:56:08.975Z,0
2018-05-06T02:57:10.583Z,0
2018-05-06T02:58:12.234Z,0
2018-05-06T02:59:13.873Z,0
2018-05-06T03:00:15.518Z,0
2018-05-06T03:01:17.179Z,0
2018-05-06T03:02:18.897Z,0
2018-05-06T03:03:20.542Z,0
2018-05-06T03:04:22.180Z,0
2018-05-06T03:05:23.833Z,0
2018-05-06T03:06:25.487Z,0
2018-05-06T03:07:27.125Z,0
2018-05-06T03:08:28.778Z,0
2018-05-06T03:09:30.419Z,0
2018-05-06T03:10:32.082Z,4
2018-05-06T03:11:33.730Z,4
2018-05-06T03:12:35.382Z,4
2018-05-06T03:13:37.025Z,0
2018-05-06T03:14:38.679Z,4
2018-05-06T03:15:40.325Z,4
2018-05-06T03:16:41.976Z,4
2018-05-06T03:17:43.622Z,4
2018-05-06T03:18:45.265Z,8
2018-05-06T03:19:46.937Z,8
2018-05-06T03:20:48.591Z,8
2018-05-06T03:21:50.245Z,12
2018-05-06T03:22:51.897Z,12
2018-05-06T03:23:53.548Z,12
2018-05-06T03:24:55.197Z,16
2018-05-06T03:25:56.844Z,20
2018-05-06T03:26:58.495Z,24
2018-05-06T03:28:00.143Z,24
2018-05-06T03:29:01.799Z,32
2018-05-06T03:30:03.463Z,36
2018-05-06T03:31:05.118Z,44
2018-05-06T03:32:06.764Z,52
2018-05-06T03:33:08.420Z,56
2018-05-06T03:34:10.073Z,68
2018-05-06T03:35:11.731Z,76
2018-05-06T03:36:13.378Z,88
2018-05-06T03:37:15.031Z,100
2018-05-06T03:38:16.684Z,112
2018-05-06T03:39:18.326Z,128
2018-05-06T03:40:19.971Z,144
2018-05-06T03:41:21.623Z,164
2018-05-06T03:42:23.273Z,184
2018-05-06T03:43:24.918Z,208
2018-05-06T03:44:26.567Z,228
2018-05-06T03:45:28.216Z,256
2018-05-06T03:46:29.856Z,284
2018-05-06T03:47:31.508Z,312
2018-05-06T03:48:33.161Z,344
2018-05-06T03:49:34.806Z,380
2018-05-06T03:50:36.463Z,412
2018-05-06T03:51:38.108Z,452
2018-05-06T03:52:39.763Z,488
2018-05-06T03:53:41.406Z,532
2018-05-06T03:54:43.057Z,572
2018-05-06T03:55:44.707Z,616
2018-05-06T03:56:46.363Z,660
2018-05-06T03:57:48.009Z,708
2018-05-06T03:58:49.663Z,760
2018-05-06T03:59:51.308Z,804
2018-05-06T04:00:52.962Z,856
2018-05-06T04:01:54.602Z,912
2018-05-06T04:02:56.258Z,964
2018-05-06T04:03:57.913Z,1016
2018-05-06T04:04:59.563Z,1072
2018-05-06T04:06:01.216Z,1124
2018-05-06T04:07:02.869Z,1180
2018-05-06T04:08:04.528Z,1236
2018-05-06T04:09:06.181Z,1292
2018-05-06T04:10:07.840Z,1348
2018-05-06T04:11:09.489Z,1408
2018-05-06T04:12:11.147Z,1460
2018-05-06T04:13:12.810Z,1516
2018-05-06T04:14:14.486Z,1576
2018-05-06T04:15:16.139Z,1632
2018-05-06T04:16:17.861Z,1684
2018-05-06T04:17:19.445Z,1744
2018-05-06T04:18:21.096Z,1796
2018-05-06T04:19:22.747Z,1852
2018-05-06T04:20:24.395Z,1908
2018-05-06T04:21:26.037Z,1964
2018-05-06T04:22:27.694Z,2012
2018-05-06T04:23:29.345Z,2068
2018-05-06T04:24:30.999Z,2116
2018-05-06T04:25:32.655Z,2168
2018-05-06T04:26:34.311Z,2220
2018-05-06T04:27:35.973Z,2272
2018-05-06T04:28:37.616Z,2324
2018-05-06T04:29:39.264Z,2376
2018-05-06T04:30:40.911Z,2420
2018-05-06T04:31:42.563Z,2472
2018-05-06T04:32:44.226Z,2520
2018-05-06T04:33:45.888Z,2564
2018-05-06T04:34:47.570Z,2612
2018-05-06T04:35:49.219Z,2660
2018-05-06T04:36:50.873Z,2708
2018-05-06T04:37:52.529Z,2748
2018-05-06T04:38:54.178Z,2796
2018-05-06T04:39:55.837Z,2840
2018-05-06T04:40:58.324Z,2884
2018-05-06T04:41:59.977Z,2924
2018-05-06T04:43:01.620Z,2972
2018-05-06T04:44:03.268Z,3012
2018-05-06T04:45:04.930Z,3052
2018-05-06T04:46:06.573Z,3096
2018-05-06T04:47:08.229Z,3136
2018-05-06T04:48:09.882Z,3180
2018-05-06T04:49:12.207Z,3220
2018-05-06T04:50:13.858Z,3260
2018-05-06T04:51:15.500Z,3300
2018-05-06T04:52:17.149Z,3336
2018-05-06T04:53:18.814Z,3376
2018-05-06T04:54:21.143Z,3420
2018-05-06T04:55:22.745Z,3480
2018-05-06T04:56:24.447Z,4264
2018-05-06T04:57:26.091Z,5972
2018-05-06T04:58:27.741Z,6800
2018-05-06T04:59:29.405Z,7304
2018-05-06T05:00:31.065Z,7624
2018-05-06T05:01:32.717Z,8056
2018-05-06T05:02:34.367Z,8576
2018-05-06T05:03:36.019Z,9124
2018-05-06T05:04:37.681Z,10048
2018-05-06T05:05:39.334Z,11332
2018-05-06T05:06:40.995Z,12920
2018-05-06T05:07:42.650Z,14172
2018-05-06T05:08:44.306Z,14628
2018-05-06T05:09:45.969Z,14048
2018-05-06T05:10:47.654Z,13352
2018-05-06T05:11:49.312Z,13180
2018-05-06T05:12:50.970Z,13324
2018-05-06T05:13:52.635Z,13636
2018-05-06T05:14:54.286Z,13912
2018-05-06T05:15:55.946Z,13840
2018-05-06T05:16:57.619Z,13144
2018-05-06T05:17:59.285Z,12976
2018-05-06T05:19:00.953Z,13032
2018-05-06T05:20:02.609Z,13420
2018-05-06T05:21:04.283Z,13596
2018-05-06T05:22:05.937Z,13188
2018-05-06T05:23:07.607Z,13076
2018-05-06T05:24:09.254Z,13308
2018-05-06T05:25:10.916Z,13948
2018-05-06T05:26:12.569Z,14524
2018-05-06T05:27:14.236Z,14244
2018-05-06T05:28:15.899Z,13580
2018-05-06T05:29:17.559Z,12672
2018-05-06T05:30:19.221Z,13528
2018-05-06T05:31:20.887Z,14748
2018-05-06T05:32:22.547Z,15240
2018-05-06T05:33:24.212Z,15296
2018-05-06T05:34:25.891Z,14464
2018-05-06T05:35:27.486Z,14124
2018-05-06T05:36:29.137Z,14576
2018-05-06T05:37:30.804Z,14892
2018-05-06T05:38:33.393Z,14920
2018-05-06T05:39:35.065Z,14292
2018-05-06T05:40:36.729Z,14500
2018-05-06T05:41:38.399Z,15456
2018-05-06T05:42:40.057Z,15904
2018-05-06T05:43:41.722Z,16064
2018-05-06T05:44:43.491Z,16448
2018-05-06T05:45:45.153Z,17760
2018-05-06T05:46:46.833Z,18528
2018-05-06T05:47:48.549Z,18752
2018-05-06T05:48:50.167Z,18464
2018-05-06T05:49:51.858Z,18240
2018-05-06T05:50:53.492Z,18400
2018-05-06T05:51:55.162Z,18944
2018-05-06T05:52:56.829Z,19008
2018-05-06T05:53:58.491Z,18752
2018-05-06T05:55:00.154Z,19360
2018-05-06T06:01:38.295Z,20000
2018-05-06T10:01:20.826Z,93344
2018-05-06T10:02:22.492Z,91168
2018-05-06T10:03:24.163Z,92000
2018-05-06T10:04:25.825Z,97952
2018-05-06T10:05:27.513Z,98464
2018-05-06T10:06:29.185Z,95616
2018-05-06T10:07:30.858Z,91776
2018-05-06T10:08:32.563Z,92224
2018-05-06T10:09:34.229Z,95648
2018-05-06T10:10:35.919Z,88256
2018-05-06T10:11:37.600Z,77088
2018-05-06T10:12:39.283Z,71808
2018-05-06T10:13:40.964Z,79200
2018-05-06T10:14:42.632Z,92992
2018-05-06T10:15:44.389Z,100608
2018-05-06T10:16:45.988Z,104832
2018-05-06T10:17:47.689Z,106784
2018-05-06T10:18:49.379Z,106592
2018-05-06T10:19:51.062Z,107072
2018-05-06T10:20:52.748Z,106976
2018-05-06T10:21:54.435Z,108224
2018-05-06T10:22:56.116Z,106304
2018-05-06T10:23:57.827Z,103232
2018-05-06T10:24:59.498Z,106656
2018-05-06T10:26:01.189Z,110784
2018-05-06T10:27:02.956Z,113344
2018-05-06T10:28:04.675Z,114368
2018-05-06T10:29:06.323Z,115808
2018-05-06T10:30:08.003Z,119904
2018-05-06T10:31:09.670Z,123200
2018-05-06T10:32:11.359Z,124448
2018-05-06T10:33:13.032Z,122144
2018-05-06T10:34:14.719Z,122592
2018-05-06T10:35:16.399Z,126336
2018-05-06T10:36:18.160Z,126752
2018-05-06T10:37:19.844Z,121088
2018-05-06T10:38:21.593Z,116160
2018-05-06T10:39:23.225Z,113920
2018-05-06T10:40:24.902Z,123360
2018-05-06T10:41:26.575Z,131008
2018-05-06T10:42:28.255Z,129600
2018-05-06T10:43:29.942Z,131200
2018-05-06T10:44:31.688Z,136992
2018-05-06T10:45:33.306Z,137728
2018-05-06T10:46:34.982Z,137408
2018-05-06T10:47:36.711Z,136416
2018-05-06T10:48:38.470Z,134912
2018-05-06T10:49:40.077Z,139680
2018-05-06T10:50:41.776Z,142176
2018-05-06T10:51:43.459Z,144608
2018-05-06T10:52:45.145Z,147520
2018-05-06T10:53:46.855Z,149056
2018-05-06T10:54:48.550Z,148224
2018-05-06T10:55:50.250Z,147168
2018-05-06T10:56:51.933Z,145216
2018-05-06T10:57:53.898Z,142592
2018-05-06T10:58:55.503Z,146016
2018-05-06T10:59:57.350Z,148640
2018-05-06T11:00:59.941Z,151072
2018-05-06T11:02:02.228Z,150400
2018-05-06T11:03:04.471Z,146912
2018-05-06T11:04:06.241Z,143872
2018-05-06T11:05:08.916Z,145760
2018-05-06T11:06:10.598Z,150176
2018-05-06T11:07:12.287Z,149536
2018-05-06T11:08:13.974Z,141248
2018-05-06T11:09:15.650Z,144352
2018-05-06T11:10:17.464Z,146784
2018-05-06T11:11:28.700Z,147712
2018-05-06T11:12:29.524Z,143072
2018-05-06T11:13:31.916Z,144000
2018-05-06T11:14:33.372Z,146432
2018-05-06T11:15:35.053Z,147328
2018-05-06T11:16:37.331Z,139904
2018-05-06T11:17:39.014Z,135136
2018-05-06T11:18:41.509Z,137504
2018-05-06T11:19:43.188Z,141632
2018-05-06T11:20:45.813Z,138080
2018-05-06T11:21:47.520Z,136992
2018-05-06T11:22:50.029Z,138688
2018-05-06T11:23:51.706Z,134528
2018-05-06T11:24:54.444Z,131168
2018-05-06T11:25:56.129Z,134848
2018-05-06T11:26:59.029Z,139200
2018-05-06T11:28:00.715Z,137856
2018-05-06T11:29:03.715Z,133728
2018-05-06T11:30:05.774Z,127136
2018-05-06T11:31:07.255Z,123936
2018-05-06T11:32:08.952Z,125376
2018-05-06T11:33:10.621Z,123584
2018-05-06T14:02:05.571Z,53344
2018-05-06T14:03:07.255Z,55680
2018-05-06T14:04:08.926Z,57856
2018-05-06T14:05:10.601Z,55808
2018-05-06T14:06:12.280Z,52640
2018-05-06T14:07:13.983Z,48640
2018-05-06T14:08:15.713Z,43456
2018-05-06T14:09:17.396Z,42304
2018-05-06T14:10:19.073Z,41120
2018-05-06T14:11:20.752Z,40608
2018-05-06T14:12:22.418Z,38976
2018-05-06T14:13:24.103Z,38272
2018-05-06T14:14:25.796Z,36704
2018-05-06T14:15:27.463Z,37952
2018-05-06T14:16:29.164Z,38656
2018-05-06T14:17:34.315Z,38368
2018-05-06T14:18:36.409Z,36800
2018-05-06T14:19:39.828Z,36896
2018-05-06T14:20:43.161Z,37856
2018-05-06T14:21:47.421Z,38400
2018-05-06T14:22:51.937Z,41440
2018-05-06T14:24:09.002Z,40416
2018-05-06T14:25:12.575Z,38944
2018-05-06T14:26:29.236Z,39968
2018-05-06T14:27:33.311Z,42656
2018-05-06T14:28:36.968Z,44992
2018-05-06T14:29:41.156Z,43648
2018-05-06T14:30:45.225Z,43840
2018-05-06T14:32:23.541Z,48160
2018-05-06T14:33:33.670Z,56608
2018-05-06T14:40:25.166Z,97696
2018-05-06T14:41:29.682Z,85088
2018-05-06T14:42:34.349Z,70176
2018-05-06T14:43:37.750Z,57376
2018-05-06T14:44:42.209Z,53472
2018-05-06T14:45:45.881Z,49600
2018-05-06T14:47:51.378Z,40896
2018-05-06T14:50:44.607Z,26752
2018-05-06T14:52:58.732Z,18036
2018-05-06T14:54:02.409Z,15824
2018-05-06T14:56:04.066Z,15188
2018-05-06T18:01:40.773Z,2704
2018-05-06T18:02:42.368Z,2672
2018-05-06T18:03:44.029Z,2640
2018-05-06T18:04:45.698Z,2604
2018-05-06T18:05:47.389Z,2572
2018-05-06T18:06:49.040Z,2536
2018-05-06T18:07:50.727Z,2500
2018-05-06T18:08:52.367Z,2464
2018-05-06T18:09:54.070Z,2424
2018-05-06T18:10:55.769Z,2388
2018-05-06T18:11:57.430Z,2348
2018-05-06T18:12:59.099Z,2308
2018-05-06T18:14:00.941Z,2272
2018-05-06T18:15:02.603Z,2232
2018-05-06T18:16:04.265Z,2188
2018-05-06T18:17:06.566Z,2148
2018-05-06T18:18:09.865Z,2104
2018-05-06T18:19:13.256Z,2060
2018-05-06T18:20:14.927Z,2012
2018-05-06T18:21:16.592Z,1968
2018-05-06T18:22:18.257Z,1924
2018-05-06T18:23:21.872Z,1880
2018-05-06T18:24:24.021Z,1828
2018-05-06T18:25:27.502Z,1780
2018-05-06T18:26:29.219Z,1732
2018-05-06T18:27:30.939Z,1688
2018-05-06T18:28:32.622Z,1636
2018-05-06T18:29:34.347Z,1588
2018-05-06T18:30:36.071Z,1540
2018-05-06T18:31:37.757Z,1488
2018-05-06T18:32:39.446Z,1440
2018-05-06T18:33:41.244Z,1388
2018-05-06T18:34:42.984Z,1336
2018-05-06T18:35:44.683Z,1284
2018-05-06T18:36:46.519Z,1232
2018-05-06T18:37:48.255Z,1180
2018-05-06T18:38:50.257Z,1128
2018-05-06T18:39:52.000Z,1076
2018-05-06T18:40:53.721Z,1024
2018-05-06T18:41:55.460Z,976
2018-05-06T18:42:57.161Z,924
2018-05-06T18:43:58.945Z,876
2018-05-06T18:45:00.642Z,828
2018-05-06T18:46:02.496Z,780
2018-05-06T18:47:04.275Z,732
2018-05-06T18:48:05.912Z,688
2018-05-06T18:49:07.742Z,640
2018-05-06T18:50:11.313Z,600
2018-05-06T18:51:12.899Z,556
2018-05-06T18:52:14.828Z,516
2018-05-06T18:53:18.511Z,476
2018-05-06T18:54:20.189Z,436
2018-05-06T18:55:21.939Z,404
2018-05-06T18:56:23.670Z,368
2018-05-06T18:57:25.397Z,336
2018-05-06T18:58:27.212Z,304
2018-05-06T18:59:30.412Z,276
2018-05-06T19:00:32.285Z,248
2018-05-06T19:01:34.081Z,224
2018-05-06T19:02:35.836Z,200
2018-05-06T19:03:37.490Z,176
2018-05-06T19:04:39.247Z,160
2018-05-06T19:05:41.009Z,140
2018-05-06T19:06:42.717Z,124
2018-05-06T19:07:44.429Z,108
2018-05-06T19:08:46.174Z,96
2018-05-06T19:09:47.933Z,84
2018-05-06T19:10:49.636Z,72
2018-05-06T19:11:51.311Z,64
2018-05-06T19:12:52.991Z,56
2018-05-06T19:13:54.663Z,48
2018-05-06T19:14:56.448Z,40
2018-05-06T19:15:58.231Z,36
2018-05-06T19:16:59.984Z,32
2018-05-06T19:18:01.678Z,24
2018-05-06T19:19:03.385Z,24
2018-05-06T19:20:05.097Z,20
2018-05-06T19:21:06.795Z,16
2018-05-06T19:22:08.520Z,12
2018-05-06T19:23:10.237Z,12
2018-05-06T19:24:11.991Z,12
2018-05-06T19:25:13.696Z,8
2018-05-06T19:26:15.361Z,8
2018-05-06T19:27:17.038Z,4
2018-05-06T19:28:18.687Z,4
2018-05-06T19:29:20.496Z,4
2018-05-06T19:30:22.155Z,4
2018-05-06T19:31:23.842Z,4
2018-05-06T19:32:25.508Z,0
2018-05-06T19:33:27.181Z,4
2018-05-06T19:34:28.834Z,4
2018-05-06T19:35:30.502Z,0
2018-05-06T19:36:32.158Z,0
2018-05-06T19:37:33.812Z,0
2018-05-06T19:38:35.485Z,0
2018-05-06T19:39:37.224Z,0
2018-05-06T19:40:38.758Z,0
2018-05-06T19:41:40.410Z,0
2018-05-06T19:42:42.093Z,0
2018-05-06T19:43:43.757Z,0
2018-05-06T19:44:45.400Z,0
2018-05-06T19:45:47.082Z,0
2018-05-06T19:46:48.737Z,0
2018-05-06T19:47:50.403Z,0
2018-05-06T19:48:52.062Z,0
2018-05-06T19:49:53.668Z,0
2018-05-06T19:50:55.319Z,0
2018-05-06T19:51:57.019Z,0
2018-05-06T19:52:58.671Z,0
2018-05-06T19:54:00.317Z,0
2018-05-06T19:55:01.971Z,0
2018-05-06T19:56:03.583Z,0
2018-05-06T19:57:05.259Z,0
2018-05-06T19:58:06.918Z,0
2018-05-06T19:59:08.618Z,0
2018-05-06T20:00:10.276Z,0
2018-05-06T20:01:11.955Z,0
2018-05-06T20:02:13.604Z,0
2018-05-06T20:03:15.258Z,0
2018-05-06T20:04:16.918Z,0
2018-05-06T20:05:18.582Z,0
2018-05-06T20:06:20.236Z,0
2018-05-06T20:07:21.966Z,0
2018-05-06T20:08:23.527Z,0
2018-05-06T20:09:25.194Z,0
2018-05-06T20:10:26.874Z,0
2018-05-06T20:11:28.554Z,0
2018-05-06T20:12:30.218Z,0
2018-05-06T20:13:32.154Z,0
2018-05-06T20:14:33.816Z,0
2018-05-06T20:15:35.646Z,0
2018-05-06T20:16:37.669Z,0
2018-05-06T20:17:39.389Z,0
2018-05-06T20:18:40.985Z,0
2018-05-06T20:19:42.724Z,0
2018-05-06T20:20:44.386Z,0
2018-05-06T20:21:46.258Z,0
2018-05-06T20:22:47.827Z,0
2018-05-06T20:23:49.519Z,0
2018-05-06T20:24:51.266Z,0
2018-05-06T20:25:52.919Z,0
2018-05-06T20:26:54.575Z,0
2018-05-06T20:27:56.240Z,0
2018-05-06T20:28:58.028Z,0
2018-05-06T20:29:59.676Z,0
2018-05-06T20:31:01.401Z,0
2018-05-06T20:32:03.073Z,0
2018-05-06T20:33:05.231Z,0
2018-05-06T20:34:07.031Z,0
2018-05-06T20:35:08.691Z,0
2018-05-06T20:36:10.349Z,0
2018-05-06T20:37:12.006Z,0
2018-05-06T20:38:13.669Z,0
2018-05-06T20:39:15.380Z,0
2018-05-06T20:40:17.084Z,0
2018-05-06T20:41:19.223Z,0
2018-05-06T20:42:20.873Z,0
2018-05-06T20:43:22.548Z,0
2018-05-06T20:44:24.193Z,0
2018-05-06T20:45:25.855Z,0
2018-05-06T20:46:27.552Z,0
2018-05-06T20:47:29.209Z,0
2018-05-06T20:48:30.869Z,0
2018-05-06T20:49:32.527Z,0
2018-05-06T20:50:34.195Z,0
2018-05-06T20:51:35.865Z,0
2018-05-06T20:52:37.522Z,0
2018-05-06T20:53:39.182Z,0
2018-05-06T20:54:40.859Z,0
2018-05-06T20:55:42.528Z,0
2018-05-06T20:56:44.195Z,0
2018-05-06T20:57:45.852Z,0
2018-05-06T20:58:47.539Z,0
2018-05-06T20:59:49.195Z,0
2018-05-06T21:00:50.845Z,0
2018-05-06T21:01:52.506Z,0
2018-05-06T21:02:54.161Z,0
2018-05-06T21:03:55.900Z,0
2018-05-06T21:04:57.483Z,0
2018-05-06T21:05:59.135Z,0
2018-05-06T21:07:00.799Z,0
2018-05-06T21:08:02.458Z,0
2018-05-06T21:09:04.124Z,0
2018-05-06T21:10:05.780Z,0
2018-05-06T21:11:07.446Z,0
2018-05-06T21:12:09.103Z,0
2018-05-06T21:13:10.745Z,0
2018-05-06T21:14:12.393Z,0
2018-05-06T21:15:14.056Z,0
2018-05-06T21:16:15.786Z,0
2018-05-06T21:17:17.357Z,0
2018-05-06T21:18:19.015Z,0
2018-05-06T21:19:20.665Z,0
2018-05-06T21:20:22.319Z,0
2018-05-06T21:21:23.975Z,0
2018-05-06T21:22:25.629Z,0
2018-05-06T21:23:27.287Z,0
2018-05-06T21:24:28.947Z,0
2018-05-06T21:25:30.618Z,0
2018-05-06T21:26:32.283Z,0
2018-05-06T21:27:33.957Z,0
2018-05-06T21:28:35.649Z,0
2018-05-06T21:29:37.240Z,0
2018-05-06T21:30:38.936Z,0
2018-05-06T21:31:40.557Z,0
2018-05-06T21:32:42.215Z,0
2018-05-06T21:33:44.021Z,0
2018-05-06T21:34:45.683Z,0
2018-05-06T21:35:47.355Z,0
2018-05-06T21:36:49.090Z,0
2018-05-06T21:37:50.665Z,0
2018-05-06T21:38:52.327Z,0
2018-05-06T21:39:53.973Z,0
2018-05-06T21:40:55.624Z,0
2018-05-06T21:41:57.282Z,0
2018-05-06T21:42:58.937Z,0
2018-05-06T21:44:00.588Z,0
2018-05-06T21:45:02.294Z,0
2018-05-06T21:46:03.890Z,0
2018-05-06T21:47:05.537Z,0
2018-05-06T21:48:07.184Z,0
2018-05-06T21:49:08.836Z,0
2018-05-06T21:50:10.494Z,0
2018-05-06T21:51:12.143Z,0
2018-05-06T21:52:13.800Z,0
2018-05-06T21:53:15.443Z,0
2018-05-06T21:54:17.097Z,0
2018-05-06T21:55:18.748Z,0
2018-05-06T22:01:11.185Z,0
2018-05-06T22:02:12.834Z,0
2018-05-06T22:04:04.766Z,0
2018-05-06T22:05:06.417Z,0
2018-05-06T22:06:58.327Z,0
2018-05-06T22:07:59.971Z,0
2018-05-06T22:09:51.908Z,0
2018-05-06T22:10:53.552Z,0
2018-05-06T22:12:45.473Z,0
2018-05-06T22:13:47.153Z,0
2018-05-06T22:15:39.047Z,0
2018-05-06T22:16:40.695Z,0
2018-05-06T22:18:32.622Z,0
2018-05-06T22:19:34.276Z,0
2018-05-06T22:21:26.197Z,0
2018-05-06T22:22:27.892Z,0
2018-05-06T22:24:19.764Z,0
2018-05-06T22:25:21.419Z,0
2018-05-06T22:27:13.308Z,0
2018-05-06T22:28:14.964Z,0
2018-05-06T22:30:06.906Z,0
2018-05-06T22:31:08.558Z,0
2018-05-06T22:33:00.457Z,0
2018-05-06T22:34:02.106Z,0
2018-05-06T22:35:54.042Z,0
2018-05-06T22:36:55.686Z,0
2018-05-06T22:38:47.642Z,0
2018-05-06T22:39:49.295Z,0
2018-05-06T22:40:50.941Z,0
2018-05-06T22:41:52.594Z,0
2018-05-06T22:42:54.250Z,0
2018-05-06T22:43:55.901Z,0
2018-05-06T22:44:57.556Z,0
2018-05-06T22:45:59.205Z,0
2018-05-06T22:47:00.866Z,0
2018-05-06T22:48:02.505Z,0
2018-05-06T22:49:04.157Z,0
2018-05-06T22:50:05.806Z,0
2018-05-06T22:51:07.467Z,0
2018-05-06T22:52:09.115Z,0
2018-05-06T22:53:10.770Z,0
2018-05-06T22:54:12.423Z,0
2018-05-06T22:55:14.076Z,0
2018-05-06T22:56:15.731Z,0
2018-05-06T22:57:17.384Z,0
2018-05-06T22:58:19.039Z,0
2018-05-06T22:59:20.701Z,0
2018-05-06T23:00:22.357Z,0
2018-05-06T23:01:23.998Z,0
2018-05-06T23:02:25.652Z,0
2018-05-06T23:03:27.304Z,0
2018-05-06T23:04:28.954Z,0
2018-05-06T23:05:30.603Z,0
2018-05-06T23:06:32.250Z,0
2018-05-06T23:07:33.902Z,0
2018-05-06T23:08:35.547Z,0
2018-05-06T23:09:37.209Z,0
2018-05-06T23:10:38.868Z,0
2018-05-06T23:11:40.520Z,0
2018-05-06T23:12:42.176Z,0
2018-05-06T23:13:43.825Z,0
2018-05-06T23:14:45.480Z,0
2018-05-06T23:15:47.175Z,0
2018-05-06T23:16:48.817Z,0
2018-05-06T23:17:50.463Z,0
2018-05-06T23:18:52.115Z,0
2018-05-06T23:19:53.761Z,0
2018-05-06T23:20:55.502Z,0
2018-05-06T23:21:57.023Z,0
2018-05-06T23:22:58.684Z,0
2018-05-06T23:24:00.330Z,0
2018-05-06T23:25:01.975Z,0
2018-05-06T23:26:03.628Z,0
2018-05-06T23:27:05.281Z,0
2018-05-06T23:28:06.929Z,0
2018-05-06T23:29:08.583Z,0
2018-05-06T23:30:10.228Z,0
2018-05-06T23:31:11.873Z,0
2018-05-06T23:32:13.524Z,0
2018-05-06T23:33:15.178Z,0
2018-05-06T23:34:16.830Z,0
2018-05-06T23:35:18.474Z,0
2018-05-06T23:36:20.119Z,0
2018-05-06T23:37:21.772Z,0
2018-05-06T23:38:23.414Z,0
2018-05-06T23:39:25.063Z,0
2018-05-06T23:40:26.721Z,0
2018-05-06T23:41:28.365Z,0
2018-05-06T23:42:30.013Z,0
2018-05-06T23:43:31.666Z,0
2018-05-06T23:44:33.305Z,0
2018-05-06T23:45:34.951Z,0
2018-05-06T23:46:36.599Z,0
2018-05-06T23:47:38.245Z,0
2018-05-06T23:48:39.893Z,0
2018-05-06T23:49:41.550Z,0
2018-05-06T23:50:43.196Z,0
2018-05-06T23:51:44.841Z,0
2018-05-06T23:52:46.501Z,0
2018-05-06T23:53:48.144Z,0
2018-05-06T23:54:49.797Z,0
2018-05-06T23:55:51.440Z,0
2018-05-06T23:56:53.103Z,0
2018-05-06T23:57:54.750Z,0
2018-05-06T23:58:56.399Z,0
2018-05-06T23:59:58.044Z,0
